createdAt,value
2024-05-09T00:00:15.980Z,12.50
2024-05-09T00:01:56.631Z,12.50
2024-05-09T00:03:31.284Z,12.50
2024-05-09T00:05:03.548Z,12.50
2024-05-09T00:06:38.185Z,12.50
2024-05-09T00:08:10.970Z,12.50
2024-05-09T00:09:47.825Z,12.50
2024-05-09T00:11:20.573Z,12.50
2024-05-09T00:12:55.291Z,12.40
2024-05-09T00:14:27.260Z,12.40
2024-05-09T00:16:04.483Z,12.40
2024-05-09T00:17:36.449Z,12.40
2024-05-09T00:19:11.372Z,12.40
2024-05-09T00:20:43.441Z,12.40
2024-05-09T00:22:18.480Z,12.40
2024-05-09T00:23:50.401Z,12.30
2024-05-09T00:25:25.027Z,12.30
2024-05-09T00:26:58.635Z,12.30
2024-05-09T00:28:33.143Z,12.30
2024-05-09T00:30:07.313Z,12.30
2024-05-09T00:31:44.534Z,12.30
2024-05-09T00:33:16.705Z,12.30
2024-05-09T00:34:51.399Z,12.30
2024-05-09T00:36:23.355Z,12.20
2024-05-09T00:37:57.929Z,12.20
2024-05-09T00:39:29.870Z,12.20
2024-05-09T00:41:04.400Z,12.20
2024-05-09T00:42:40.334Z,12.20
2024-05-09T00:44:12.378Z,12.10
2024-05-09T00:45:47.292Z,12.10
2024-05-09T00:47:22.137Z,12.10
2024-05-09T00:48:56.875Z,12.00
2024-05-09T00:50:35.731Z,12.00
2024-05-09T00:52:12.934Z,11.90
2024-05-09T00:53:46.032Z,11.80
2024-05-09T00:55:20.997Z,11.80
2024-05-09T00:56:53.185Z,11.70
2024-05-09T00:58:30.312Z,11.70
2024-05-09T01:00:02.310Z,11.70
2024-05-09T01:01:37.329Z,11.70
2024-05-09T01:03:13.678Z,11.80
2024-05-09T01:04:49.116Z,11.70
2024-05-09T01:06:21.533Z,11.80
2024-05-09T01:07:56.089Z,11.70
2024-05-09T01:09:30.626Z,11.80
2024-05-09T01:11:02.633Z,11.70
2024-05-09T01:12:37.235Z,11.80
2024-05-09T01:14:09.256Z,11.80
2024-05-09T01:15:44.397Z,11.80
2024-05-09T01:17:19.753Z,11.70
2024-05-09T01:18:57.052Z,11.70
2024-05-09T01:20:39.198Z,11.70
2024-05-09T01:22:16.668Z,11.70
2024-05-09T01:23:53.727Z,11.70
2024-05-09T01:25:25.615Z,11.70
2024-05-09T01:27:00.084Z,11.70
2024-05-09T01:28:34.626Z,11.70
2024-05-09T01:30:09.653Z,11.70
2024-05-09T01:31:52.166Z,11.70
2024-05-09T01:33:24.315Z,11.60
2024-05-09T01:34:59.020Z,11.70
2024-05-09T01:36:34.021Z,11.60
2024-05-09T01:38:06.167Z,11.60
2024-05-09T01:39:43.619Z,11.60
2024-05-09T01:41:15.607Z,11.60
2024-05-09T01:42:50.166Z,11.60
2024-05-09T01:44:22.074Z,11.60
2024-05-09T01:45:56.640Z,11.60
2024-05-09T01:47:28.736Z,11.60
2024-05-09T01:49:04.537Z,11.60
2024-05-09T01:50:42.072Z,11.60
2024-05-09T01:52:17.708Z,11.60
2024-05-09T01:53:49.653Z,11.60
2024-05-09T01:55:26.726Z,11.50
2024-05-09T01:56:58.708Z,11.50
2024-05-09T01:58:33.549Z,11.40
2024-05-09T02:00:07.882Z,11.40
2024-05-09T02:01:56.287Z,11.40
2024-05-09T02:03:30.011Z,11.30
2024-05-09T02:05:04.798Z,11.30
2024-05-09T02:06:39.948Z,11.30
2024-05-09T02:08:17.965Z,11.30
2024-05-09T02:09:54.359Z,11.30
2024-05-09T02:11:31.534Z,11.30
2024-05-09T02:13:03.676Z,11.30
2024-05-09T02:14:38.265Z,11.30
2024-05-09T02:16:12.230Z,11.30
2024-05-09T02:17:46.852Z,11.40
2024-05-09T02:19:19.012Z,11.30
2024-05-09T02:20:53.711Z,11.30
2024-05-09T02:22:28.237Z,11.30
2024-05-09T02:24:00.160Z,11.40
2024-05-09T02:25:35.088Z,11.40
2024-05-09T02:27:09.642Z,11.40
2024-05-09T02:28:44.185Z,11.40
2024-05-09T02:30:22.880Z,11.40
2024-05-09T02:32:05.057Z,11.40
2024-05-09T02:33:37.432Z,11.40
2024-05-09T02:35:12.149Z,11.40
2024-05-09T02:36:44.099Z,11.40
2024-05-09T02:38:18.671Z,11.40
2024-05-09T02:39:50.615Z,11.30
2024-05-09T02:41:22.694Z,11.30
2024-05-09T02:43:00.409Z,11.30
2024-05-09T02:44:32.389Z,11.30
2024-05-09T02:46:07.259Z,11.30
2024-05-09T02:47:39.596Z,11.30
2024-05-09T02:49:12.048Z,11.30
2024-05-09T02:50:46.739Z,11.30
2024-05-09T02:52:19.283Z,11.30
2024-05-09T02:53:53.773Z,11.20
2024-05-09T02:55:25.709Z,11.20
2024-05-09T02:56:57.654Z,11.20
2024-05-09T02:58:34.748Z,11.10
2024-05-09T03:00:15.015Z,11.10
2024-05-09T03:01:50.780Z,11.10
2024-05-09T03:03:25.788Z,11.00
2024-05-09T03:04:58.769Z,11.00
2024-05-09T03:06:30.681Z,11.00
2024-05-09T03:08:05.340Z,10.90
2024-05-09T03:09:37.343Z,10.90
2024-05-09T03:11:09.394Z,10.90
2024-05-09T03:12:43.985Z,10.80
2024-05-09T03:14:19.119Z,10.80
2024-05-09T03:15:51.033Z,10.80
2024-05-09T03:17:26.006Z,10.80
2024-05-09T03:18:58.455Z,10.80
2024-05-09T03:20:34.461Z,10.80
2024-05-09T03:22:10.444Z,10.80
2024-05-09T03:23:42.736Z,10.80
2024-05-09T03:25:14.825Z,10.80
2024-05-09T03:26:49.589Z,10.70
2024-05-09T03:28:21.496Z,10.70
2024-05-09T03:29:58.598Z,10.70
2024-05-09T03:31:30.493Z,10.70
2024-05-09T03:33:05.675Z,10.70
2024-05-09T03:34:39.200Z,10.60
2024-05-09T03:36:11.497Z,10.60
2024-05-09T03:37:46.068Z,10.60
2024-05-09T03:39:18.004Z,10.60
2024-05-09T03:40:53.241Z,10.60
2024-05-09T03:42:25.187Z,10.60
2024-05-09T03:43:59.752Z,10.60
2024-05-09T03:45:34.334Z,10.60
2024-05-09T03:47:08.931Z,10.60
2024-05-09T03:48:40.915Z,10.50
2024-05-09T03:50:21.852Z,10.50
2024-05-09T03:52:04.970Z,10.50
2024-05-09T03:53:36.921Z,10.50
2024-05-09T03:55:08.831Z,10.50
2024-05-09T03:56:43.381Z,10.50
2024-05-09T03:58:15.410Z,10.50
2024-05-09T03:59:47.336Z,10.40
2024-05-09T04:01:25.117Z,10.40
2024-05-09T04:02:59.039Z,10.40
2024-05-09T04:04:31.108Z,10.40
2024-05-09T04:06:05.802Z,10.40
2024-05-09T04:07:38.150Z,10.40
2024-05-09T04:09:10.074Z,10.40
2024-05-09T04:10:44.782Z,10.40
2024-05-09T04:12:16.867Z,10.40
2024-05-09T04:13:48.880Z,10.40
2024-05-09T04:15:23.729Z,10.40
2024-05-09T04:16:58.258Z,10.40
2024-05-09T04:18:30.302Z,10.40
2024-05-09T04:20:06.605Z,10.40
2024-05-09T04:21:40.178Z,10.40
2024-05-09T04:23:13.707Z,10.40
2024-05-09T04:24:49.452Z,10.40
2024-05-09T04:26:21.460Z,10.40
2024-05-09T04:27:55.879Z,10.40
2024-05-09T04:29:30.526Z,10.40
2024-05-09T04:31:02.547Z,10.40
2024-05-09T04:32:37.258Z,10.40
2024-05-09T04:34:11.879Z,10.40
2024-05-09T04:35:44.336Z,10.40
2024-05-09T04:37:19.657Z,10.40
2024-05-09T04:38:51.531Z,10.40
2024-05-09T04:40:30.808Z,10.40
2024-05-09T04:42:08.470Z,10.40
2024-05-09T04:43:40.944Z,10.40
2024-05-09T04:45:12.979Z,10.40
2024-05-09T04:46:47.630Z,10.40
2024-05-09T04:48:22.427Z,10.40
2024-05-09T04:49:54.446Z,10.40
2024-05-09T04:51:28.994Z,10.40
2024-05-09T04:53:00.930Z,10.40
2024-05-09T04:54:36.304Z,10.40
2024-05-09T04:56:11.388Z,10.40
2024-05-09T04:57:43.385Z,10.50
2024-05-09T04:59:15.420Z,10.50
2024-05-09T05:00:49.964Z,10.50
2024-05-09T05:02:21.980Z,10.50
2024-05-09T05:03:56.771Z,10.50
2024-05-09T05:05:31.610Z,10.50
2024-05-09T05:07:03.623Z,10.50
2024-05-09T05:08:36.247Z,10.60
2024-05-09T05:10:15.044Z,10.60
2024-05-09T05:11:53.533Z,10.60
2024-05-09T05:13:25.699Z,10.60
2024-05-09T05:15:00.225Z,10.60
2024-05-09T05:16:32.119Z,10.70
2024-05-09T05:18:04.876Z,10.70
2024-05-09T05:19:42.154Z,10.70
2024-05-09T05:21:14.232Z,10.80
2024-05-09T05:22:46.247Z,10.80
2024-05-09T05:24:20.803Z,10.80
2024-05-09T05:25:53.937Z,10.90
2024-05-09T05:27:26.261Z,10.90
2024-05-09T05:29:00.770Z,11.00
2024-05-09T05:30:34.792Z,10.90
2024-05-09T05:32:08.091Z,11.00
2024-05-09T05:33:42.774Z,11.00
2024-05-09T05:35:17.418Z,11.00
2024-05-09T05:36:49.316Z,11.00
2024-05-09T05:38:27.497Z,11.00
2024-05-09T05:40:00.447Z,11.00
2024-05-09T05:41:35.035Z,11.10
2024-05-09T05:43:08.329Z,11.10
2024-05-09T05:44:42.831Z,11.10
2024-05-09T05:46:14.724Z,11.20
2024-05-09T05:47:49.469Z,11.20
2024-05-09T05:49:21.602Z,11.20
2024-05-09T05:50:56.286Z,11.20
2024-05-09T05:52:30.835Z,11.20
2024-05-09T05:54:02.745Z,11.30
2024-05-09T05:55:34.731Z,11.40
2024-05-09T05:57:09.329Z,11.40
2024-05-09T05:58:43.079Z,11.40
2024-05-09T06:00:25.410Z,11.40
2024-05-09T06:02:04.229Z,11.40
2024-05-09T06:03:36.296Z,11.40
2024-05-09T06:05:09.222Z,11.40
2024-05-09T06:06:46.342Z,11.50
2024-05-09T06:08:18.265Z,11.50
2024-05-09T06:09:50.569Z,11.60
2024-05-09T06:11:25.276Z,11.70
2024-05-09T06:12:57.245Z,11.80
2024-05-09T06:14:31.797Z,11.80
2024-05-09T06:16:04.926Z,11.90
2024-05-09T06:17:39.503Z,11.90
2024-05-09T06:19:11.555Z,12.00
2024-05-09T06:20:44.312Z,12.10
2024-05-09T06:22:21.702Z,12.10
2024-05-09T06:23:54.618Z,12.20
2024-05-09T06:25:26.764Z,12.30
2024-05-09T06:27:01.252Z,12.30
2024-05-09T06:28:35.422Z,12.40
2024-05-09T06:30:12.168Z,12.50
2024-05-09T06:31:51.774Z,12.60
2024-05-09T06:33:23.865Z,12.70
2024-05-09T06:34:55.931Z,12.80
2024-05-09T06:36:30.487Z,13.00
2024-05-09T06:38:06.028Z,13.10
2024-05-09T06:39:40.554Z,13.30
2024-05-09T06:41:12.602Z,13.50
2024-05-09T06:42:44.563Z,13.60
2024-05-09T06:44:19.141Z,13.80
2024-05-09T06:45:52.677Z,14.10
2024-05-09T06:47:24.890Z,14.30
2024-05-09T06:49:04.128Z,14.50
2024-05-09T06:50:38.336Z,14.80
2024-05-09T06:52:14.192Z,15.10
2024-05-09T06:53:48.828Z,15.30
2024-05-09T06:55:20.770Z,15.60
2024-05-09T06:56:55.272Z,15.80
2024-05-09T06:58:27.196Z,16.00
2024-05-09T07:00:00.663Z,16.30
2024-05-09T07:01:35.390Z,16.50
2024-05-09T07:03:08.125Z,16.80
2024-05-09T07:04:42.783Z,17.10
2024-05-09T07:06:14.730Z,17.30
2024-05-09T07:07:46.751Z,17.50
2024-05-09T07:09:23.890Z,17.70
2024-05-09T07:10:55.876Z,17.90
2024-05-09T07:12:28.070Z,18.10
2024-05-09T07:14:02.682Z,18.30
2024-05-09T07:15:34.575Z,18.50
2024-05-09T07:17:06.646Z,18.70
2024-05-09T07:18:41.446Z,18.90
2024-05-09T07:20:23.103Z,19.10
2024-05-09T07:22:02.459Z,19.30
2024-05-09T07:23:34.424Z,19.50
2024-05-09T07:25:09.080Z,19.70
2024-05-09T07:26:43.600Z,20.00
2024-05-09T07:28:16.502Z,20.20
2024-05-09T07:29:51.015Z,20.30
2024-05-09T07:31:23.453Z,20.30
2024-05-09T07:32:56.123Z,20.40
2024-05-09T07:34:30.811Z,20.50
2024-05-09T07:36:02.867Z,20.60
2024-05-09T07:37:34.782Z,20.70
2024-05-09T07:39:09.240Z,20.80
2024-05-09T07:40:43.784Z,20.90
2024-05-09T07:42:15.690Z,21.10
2024-05-09T07:43:50.201Z,21.10
2024-05-09T07:45:41.652Z,21.10
2024-05-09T07:48:28.935Z,21.10
2024-05-09T07:53:30.273Z,21.60
2024-05-09T07:54:12.844Z,21.70
2024-05-09T07:55:50.181Z,21.90
2024-05-09T07:57:22.225Z,22.10
2024-05-09T07:58:56.775Z,22.30
2024-05-09T08:00:31.547Z,22.50
2024-05-09T08:02:05.298Z,22.70
2024-05-09T08:03:40.747Z,22.70
2024-05-09T08:05:13.038Z,22.80
2024-05-09T08:06:45.138Z,23.00
2024-05-09T08:08:19.793Z,23.20
2024-05-09T08:09:51.725Z,23.40
2024-05-09T08:11:28.869Z,23.60
2024-05-09T08:13:00.837Z,23.60
2024-05-09T08:14:32.775Z,23.60
2024-05-09T08:16:08.200Z,23.60
2024-05-09T08:17:40.193Z,23.60
2024-05-09T08:19:12.362Z,23.70
2024-05-09T08:20:52.251Z,23.90
2024-05-09T08:22:24.131Z,24.00
2024-05-09T08:23:56.251Z,24.10
2024-05-09T08:25:30.885Z,24.20
2024-05-09T08:27:05.725Z,24.20
2024-05-09T08:28:43.410Z,24.30
2024-05-09T08:30:21.995Z,24.30
2024-05-09T08:32:01.542Z,24.40
2024-05-09T08:33:36.468Z,24.40
2024-05-09T08:35:08.701Z,24.30
2024-05-09T08:36:40.916Z,24.40
2024-05-09T08:38:17.246Z,24.40
2024-05-09T08:39:49.207Z,24.40
2024-05-09T08:41:21.177Z,24.50
2024-05-09T08:43:03.781Z,24.70
2024-05-09T08:44:37.030Z,24.90
2024-05-09T08:46:09.153Z,25.00
2024-05-09T08:47:44.023Z,25.10
2024-05-09T08:49:16.774Z,25.00
2024-05-09T08:50:51.704Z,24.90
2024-05-09T08:52:26.294Z,24.90
2024-05-09T08:53:58.245Z,25.00
2024-05-09T08:55:30.243Z,25.00
2024-05-09T08:57:06.710Z,25.20
2024-05-09T08:58:42.595Z,25.40
2024-05-09T09:01:50.904Z,25.50
2024-05-09T09:03:26.885Z,25.50
2024-05-09T09:05:07.154Z,25.50
2024-05-09T09:06:44.573Z,25.60
2024-05-09T09:08:19.657Z,25.70
2024-05-09T09:09:52.571Z,25.70
2024-05-09T09:11:24.644Z,25.30
2024-05-09T09:13:00.739Z,25.20
2024-05-09T09:14:35.564Z,25.20
2024-05-09T09:16:08.011Z,25.10
2024-05-09T09:17:42.720Z,25.30
2024-05-09T09:19:14.785Z,25.30
2024-05-09T09:20:46.948Z,25.30
2024-05-09T09:22:22.110Z,25.20
2024-05-09T09:23:54.199Z,25.30
2024-05-09T09:25:26.171Z,25.20
2024-05-09T09:27:01.124Z,25.30
2024-05-09T09:28:36.919Z,25.60
2024-05-09T09:30:30.766Z,25.70
2024-05-09T09:32:08.567Z,25.90
2024-05-09T09:33:42.244Z,26.00
2024-05-09T09:35:17.003Z,25.90
2024-05-09T09:36:49.984Z,25.90
2024-05-09T09:38:25.970Z,25.90
2024-05-09T09:39:59.245Z,26.00
2024-05-09T09:41:33.083Z,26.00
2024-05-09T09:43:11.852Z,26.00
2024-05-09T09:44:47.933Z,26.00
2024-05-09T09:46:30.297Z,26.10
2024-05-09T09:48:03.694Z,26.20
2024-05-09T09:49:36.889Z,26.30
2024-05-09T09:51:11.934Z,26.40
2024-05-09T09:52:44.779Z,26.50
2024-05-09T09:54:20.752Z,26.50
2024-05-09T09:55:53.947Z,26.50
2024-05-09T09:57:27.773Z,26.50
2024-05-09T09:59:06.785Z,26.50
2024-05-09T10:00:39.066Z,26.60
2024-05-09T10:02:14.418Z,26.70
2024-05-09T10:03:49.248Z,26.90
2024-05-09T10:05:23.304Z,27.00
2024-05-09T10:07:01.987Z,27.00
2024-05-09T10:08:35.727Z,26.80
2024-05-09T10:10:10.996Z,26.30
2024-05-09T10:11:52.039Z,26.10
2024-05-09T10:13:33.698Z,26.10
2024-05-09T10:15:11.830Z,26.20
2024-05-09T10:16:44.224Z,26.30
2024-05-09T10:18:26.093Z,26.20
2024-05-09T10:20:14.751Z,26.20
2024-05-09T10:22:01.512Z,26.20
2024-05-09T10:23:34.474Z,26.20
2024-05-09T10:25:10.358Z,26.30
2024-05-09T10:26:42.315Z,26.20
2024-05-09T10:28:14.547Z,26.10
2024-05-09T10:29:55.710Z,26.10
2024-05-09T10:31:29.086Z,26.20
2024-05-09T10:33:01.207Z,26.10
2024-05-09T10:34:38.523Z,26.00
2024-05-09T10:36:13.700Z,25.70
2024-05-09T10:37:46.404Z,25.40
2024-05-09T10:39:22.759Z,25.20
2024-05-09T10:40:56.966Z,25.00
2024-05-09T10:42:29.917Z,25.00
2024-05-09T10:44:04.410Z,25.00
2024-05-09T10:45:36.323Z,25.10
2024-05-09T10:47:08.405Z,25.20
2024-05-09T10:48:45.873Z,25.40
2024-05-09T10:50:28.078Z,25.50
2024-05-09T10:52:04.223Z,25.60
2024-05-09T10:53:43.748Z,25.60
2024-05-09T10:55:15.848Z,25.40
2024-05-09T10:56:58.636Z,25.40
2024-05-09T10:58:30.530Z,25.40
2024-05-09T11:00:02.442Z,25.10
2024-05-09T11:01:37.798Z,24.90
2024-05-09T11:03:10.931Z,24.60
2024-05-09T11:04:45.162Z,24.20
2024-05-09T11:06:22.358Z,23.90
2024-05-09T11:07:54.960Z,23.60
2024-05-09T11:09:29.685Z,23.40
2024-05-09T11:11:03.061Z,23.30
2024-05-09T11:12:37.969Z,23.20
2024-05-09T11:14:13.170Z,23.10
2024-05-09T11:15:45.081Z,22.90
2024-05-09T11:17:19.684Z,22.90
2024-05-09T11:18:55.942Z,22.70
2024-05-09T11:20:35.500Z,22.70
2024-05-09T11:22:12.933Z,23.00
2024-05-09T11:23:44.978Z,23.10
2024-05-09T11:25:17.058Z,23.10
2024-05-09T11:26:51.839Z,23.40
2024-05-09T11:28:24.168Z,23.40
2024-05-09T11:29:59.381Z,23.40
2024-05-09T11:31:31.594Z,23.40
2024-05-09T11:33:04.101Z,23.40
2024-05-09T11:34:38.789Z,23.30
2024-05-09T11:36:11.275Z,23.30
2024-05-09T11:37:45.969Z,23.30
2024-05-09T11:39:20.526Z,23.20
2024-05-09T11:40:52.485Z,23.20
2024-05-09T11:42:24.404Z,23.20
2024-05-09T11:43:59.010Z,23.20
2024-05-09T11:45:30.960Z,23.00
2024-05-09T11:47:04.391Z,23.00
2024-05-09T11:48:38.997Z,22.90
2024-05-09T11:50:16.352Z,22.80
2024-05-09T11:51:54.591Z,22.90
2024-05-09T11:53:31.746Z,22.90
2024-05-09T11:55:03.887Z,23.00
2024-05-09T11:56:38.550Z,23.00
2024-05-09T11:58:12.314Z,23.10
2024-05-09T11:59:46.908Z,23.00
2024-05-09T12:01:20.016Z,22.80
2024-05-09T12:02:54.225Z,22.60
2024-05-09T12:04:30.179Z,22.60
2024-05-09T12:06:02.388Z,22.50
2024-05-09T12:07:34.444Z,22.40
2024-05-09T12:09:11.753Z,22.30
2024-05-09T12:10:43.797Z,22.20
2024-05-09T12:12:15.891Z,22.30
2024-05-09T12:13:50.687Z,22.40
2024-05-09T12:15:22.620Z,22.40
2024-05-09T12:16:54.577Z,22.30
2024-05-09T12:18:29.157Z,22.30
2024-05-09T12:20:01.186Z,22.30
2024-05-09T12:21:33.234Z,22.30
2024-05-09T12:23:09.486Z,22.20
2024-05-09T12:24:44.926Z,22.20
2024-05-09T12:26:16.980Z,22.20
2024-05-09T12:27:51.819Z,22.20
2024-05-09T12:29:23.915Z,22.20
2024-05-09T12:30:55.850Z,22.30
2024-05-09T12:32:30.499Z,22.40
2024-05-09T12:34:02.596Z,22.40
2024-05-09T12:35:34.538Z,22.50
2024-05-09T12:37:09.181Z,22.50
2024-05-09T12:38:41.345Z,22.50
2024-05-09T12:40:23.035Z,22.50
2024-05-09T12:42:05.969Z,22.50
2024-05-09T12:43:38.008Z,22.50
2024-05-09T12:45:09.944Z,22.40
2024-05-09T12:46:44.787Z,22.50
2024-05-09T12:48:16.904Z,22.50
2024-05-09T12:49:51.595Z,22.30
2024-05-09T12:51:23.563Z,22.30
2024-05-09T12:52:55.599Z,22.30
2024-05-09T12:54:31.769Z,22.30
2024-05-09T12:56:09.321Z,22.30
2024-05-09T12:57:41.470Z,22.30
2024-05-09T12:59:16.003Z,22.20
2024-05-09T13:00:48.124Z,22.20
2024-05-09T13:02:20.675Z,22.10
2024-05-09T13:03:55.551Z,22.20
2024-05-09T13:05:27.928Z,22.20
2024-05-09T13:07:04.312Z,22.20
2024-05-09T13:08:37.734Z,22.20
2024-05-09T13:10:13.903Z,22.20
2024-05-09T13:11:53.543Z,22.10
2024-05-09T13:13:25.538Z,22.10
2024-05-09T13:14:57.568Z,22.10
2024-05-09T13:16:32.249Z,22.10
2024-05-09T13:18:05.244Z,22.00
2024-05-09T13:19:39.727Z,22.00
2024-05-09T13:21:11.614Z,22.00
2024-05-09T13:22:46.093Z,22.00
2024-05-09T13:24:17.962Z,22.00
2024-05-09T13:25:52.501Z,22.00
2024-05-09T13:27:27.004Z,22.00
2024-05-09T13:29:01.501Z,22.10
2024-05-09T13:30:39.755Z,22.10
2024-05-09T13:32:16.410Z,22.20
2024-05-09T13:33:48.537Z,22.20
2024-05-09T13:35:20.555Z,22.20
2024-05-09T13:36:55.311Z,22.20
2024-05-09T13:38:27.459Z,22.20
2024-05-09T13:39:59.462Z,22.30
2024-05-09T13:41:33.934Z,22.30
2024-05-09T13:43:08.518Z,22.30
2024-05-09T13:44:40.497Z,22.30
2024-05-09T13:46:15.140Z,22.30
2024-05-09T13:47:47.352Z,22.20
2024-05-09T13:49:19.457Z,22.10
2024-05-09T13:50:54.164Z,22.00
2024-05-09T13:52:26.795Z,21.90
2024-05-09T13:53:59.317Z,21.90
2024-05-09T13:55:33.860Z,21.80
2024-05-09T13:57:06.388Z,21.80
2024-05-09T13:58:42.043Z,21.80
2024-05-09T14:00:27.427Z,21.90
2024-05-09T14:02:09.234Z,21.90
2024-05-09T14:03:41.387Z,22.00
2024-05-09T14:05:16.508Z,22.00
2024-05-09T14:06:49.001Z,22.10
2024-05-09T14:08:22.534Z,22.10
2024-05-09T14:09:57.459Z,22.00
2024-05-09T14:11:29.465Z,22.00
2024-05-09T14:13:01.830Z,21.90
2024-05-09T14:14:38.983Z,21.90
2024-05-09T14:16:11.101Z,21.90
2024-05-09T14:17:43.154Z,22.00
2024-05-09T14:19:17.799Z,22.00
2024-05-09T14:20:49.775Z,22.00
2024-05-09T14:22:24.384Z,22.10
2024-05-09T14:23:56.492Z,22.20
2024-05-09T14:25:29.255Z,22.20
2024-05-09T14:27:03.961Z,22.30
2024-05-09T14:28:35.849Z,22.30
2024-05-09T14:30:22.090Z,22.30
2024-05-09T14:31:58.150Z,22.30
2024-05-09T14:33:33.017Z,22.30
2024-05-09T14:35:05.618Z,22.30
2024-05-09T14:36:37.603Z,22.40
2024-05-09T14:38:10.020Z,22.50
2024-05-09T14:39:44.616Z,22.50
2024-05-09T14:41:16.742Z,22.50
2024-05-09T14:42:48.747Z,22.40
2024-05-09T14:44:23.378Z,22.50
2024-05-09T14:45:57.940Z,22.40
2024-05-09T14:47:30.269Z,22.40
2024-05-09T14:49:04.866Z,22.30
2024-05-09T14:50:39.277Z,22.30
2024-05-09T14:52:12.603Z,22.30
2024-05-09T14:53:47.072Z,22.30
2024-05-09T14:55:19.031Z,22.40
2024-05-09T14:56:50.937Z,22.40
2024-05-09T14:58:26.325Z,22.30
2024-05-09T14:59:58.378Z,22.30
2024-05-09T15:01:33.075Z,22.30
2024-05-09T15:03:08.589Z,22.20
2024-05-09T15:04:40.668Z,22.20
2024-05-09T15:06:15.238Z,22.20
2024-05-09T15:07:47.193Z,22.10
2024-05-09T15:09:19.150Z,22.10
2024-05-09T15:10:53.763Z,22.10
2024-05-09T15:12:25.725Z,22.10
2024-05-09T15:13:57.676Z,22.10
2024-05-09T15:15:32.254Z,22.10
2024-05-09T15:17:06.897Z,22.20
2024-05-09T15:18:41.388Z,22.20
2024-05-09T15:20:24.291Z,22.20
2024-05-09T15:22:03.669Z,22.20
2024-05-09T15:23:35.729Z,22.10
2024-05-09T15:25:10.300Z,22.00
2024-05-09T15:26:42.415Z,21.90
2024-05-09T15:28:14.477Z,21.80
2024-05-09T15:29:49.044Z,21.80
2024-05-09T15:31:21.041Z,21.80
2024-05-09T15:32:55.718Z,21.80
2024-05-09T15:34:30.367Z,21.80
2024-05-09T15:36:02.357Z,21.80
2024-05-09T15:37:34.330Z,21.70
2024-05-09T15:39:09.123Z,21.70
2024-05-09T15:40:41.391Z,21.70
2024-05-09T15:42:13.456Z,21.70
2024-05-09T15:43:47.971Z,21.70
2024-05-09T15:45:19.853Z,21.70
2024-05-09T15:46:52.531Z,21.80
2024-05-09T15:48:29.700Z,21.80
2024-05-09T15:50:01.773Z,21.70
2024-05-09T15:51:36.352Z,21.70
2024-05-09T15:53:09.571Z,21.70
2024-05-09T15:54:44.864Z,21.80
2024-05-09T15:56:17.152Z,21.80
2024-05-09T15:57:49.173Z,21.80
2024-05-09T15:59:23.747Z,21.90
2024-05-09T16:00:55.811Z,22.00
2024-05-09T16:02:27.957Z,21.90
2024-05-09T16:04:05.400Z,21.90
2024-05-09T16:05:37.891Z,21.90
2024-05-09T16:07:16.214Z,21.80
2024-05-09T16:08:50.696Z,21.80
2024-05-09T16:10:26.073Z,21.80
2024-05-09T16:12:06.889Z,21.80
2024-05-09T16:13:38.812Z,21.80
2024-05-09T16:15:14.041Z,21.70
2024-05-09T16:16:46.280Z,21.70
2024-05-09T16:18:18.532Z,21.70
2024-05-09T16:19:55.745Z,21.60
2024-05-09T16:21:28.680Z,21.60
2024-05-09T16:23:03.169Z,21.60
2024-05-09T16:24:35.200Z,21.70
2024-05-09T16:26:07.429Z,21.70
2024-05-09T16:27:42.095Z,21.70
2024-05-09T16:29:14.063Z,21.70
2024-05-09T16:30:46.053Z,21.70
2024-05-09T16:32:20.582Z,21.70
2024-05-09T16:33:52.750Z,21.70
2024-05-09T16:35:27.320Z,21.70
2024-05-09T16:37:02.509Z,21.60
2024-05-09T16:38:34.454Z,21.60
2024-05-09T16:40:15.248Z,21.60
2024-05-09T16:41:53.135Z,21.60
2024-05-09T16:43:25.234Z,21.50
2024-05-09T16:44:57.264Z,21.50
2024-05-09T16:46:31.774Z,21.50
2024-05-09T16:48:04.685Z,21.50
2024-05-09T16:49:39.685Z,21.50
2024-05-09T16:51:14.249Z,21.40
2024-05-09T16:52:48.884Z,21.40
2024-05-09T16:54:20.769Z,21.40
2024-05-09T16:55:52.650Z,21.40
2024-05-09T16:57:27.259Z,21.40
2024-05-09T16:58:59.247Z,21.40
2024-05-09T17:00:40.678Z,21.30
2024-05-09T17:02:15.299Z,21.30
2024-05-09T17:03:50.207Z,21.30
2024-05-09T17:05:22.977Z,21.30
2024-05-09T17:07:00.271Z,21.40
2024-05-09T17:08:32.446Z,21.40
2024-05-09T17:10:06.761Z,21.30
2024-05-09T17:11:43.245Z,21.30
2024-05-09T17:13:15.234Z,21.30
2024-05-09T17:14:49.982Z,21.30
2024-05-09T17:16:22.756Z,21.20
2024-05-09T17:17:59.109Z,21.20
2024-05-09T17:19:31.768Z,21.20
2024-05-09T17:21:07.060Z,21.20
2024-05-09T17:22:41.806Z,21.20
2024-05-09T17:24:13.719Z,21.20
2024-05-09T17:25:48.211Z,21.20
2024-05-09T17:27:20.128Z,21.20
2024-05-09T17:28:52.091Z,21.10
2024-05-09T17:30:32.486Z,21.10
2024-05-09T17:32:08.238Z,21.10
2024-05-09T17:33:40.303Z,21.10
2024-05-09T17:35:14.947Z,21.10
2024-05-09T17:36:47.048Z,21.10
2024-05-09T17:38:25.863Z,21.00
2024-05-09T17:39:58.012Z,21.00
2024-05-09T17:41:29.973Z,21.00
2024-05-09T17:43:05.254Z,21.00
2024-05-09T17:44:37.708Z,21.00
2024-05-09T17:46:12.346Z,21.00
2024-05-09T17:47:44.419Z,21.00
2024-05-09T17:49:19.138Z,21.00
2024-05-09T17:50:51.662Z,21.00
2024-05-09T17:52:24.882Z,21.00
2024-05-09T17:54:02.244Z,21.00
2024-05-09T17:55:34.824Z,20.90
2024-05-09T17:57:09.723Z,20.90
2024-05-09T17:58:41.720Z,20.90
2024-05-09T18:00:17.465Z,20.80
2024-05-09T18:01:55.969Z,20.80
2024-05-09T18:03:28.118Z,20.70
2024-05-09T18:05:02.978Z,20.80
2024-05-09T18:06:35.229Z,20.70
2024-05-09T18:08:08.112Z,20.70
2024-05-09T18:09:45.197Z,20.60
2024-05-09T18:11:17.510Z,20.60
2024-05-09T18:12:49.565Z,20.50
2024-05-09T18:14:24.086Z,20.50
2024-05-09T18:15:56.023Z,20.40
2024-05-09T18:17:28.139Z,20.30
2024-05-09T18:19:03.095Z,20.30
2024-05-09T18:20:42.547Z,20.30
2024-05-09T18:22:20.029Z,20.10
2024-05-09T18:23:53.980Z,20.10
2024-05-09T18:25:29.308Z,20.00
2024-05-09T18:27:03.862Z,19.90
2024-05-09T18:28:35.844Z,19.80
2024-05-09T18:31:48.807Z,19.70
2024-05-09T18:33:20.837Z,19.60
2024-05-09T18:34:52.983Z,19.60
2024-05-09T18:36:27.610Z,19.50
2024-05-09T18:37:59.594Z,19.50
2024-05-09T18:39:31.529Z,19.50
2024-05-09T18:41:08.622Z,19.50
2024-05-09T18:42:40.751Z,19.40
2024-05-09T18:44:12.644Z,19.40
2024-05-09T18:45:47.767Z,19.30
2024-05-09T18:47:20.531Z,19.30
2024-05-09T18:48:52.624Z,19.30
2024-05-09T18:50:34.868Z,19.20
2024-05-09T18:52:10.400Z,19.20
2024-05-09T18:53:45.155Z,19.10
2024-05-09T18:55:17.334Z,19.10
2024-05-09T18:56:54.486Z,19.10
2024-05-09T18:58:26.411Z,19.00
2024-05-09T19:00:00.880Z,19.00
2024-05-09T19:01:32.955Z,18.90
2024-05-09T19:03:09.204Z,18.90
2024-05-09T19:04:46.103Z,18.80
2024-05-09T19:06:19.709Z,18.80
2024-05-09T19:07:56.359Z,18.80
2024-05-09T19:09:28.284Z,18.70
2024-05-09T19:11:02.864Z,18.70
2024-05-09T19:12:37.511Z,18.60
2024-05-09T19:14:09.526Z,18.60
2024-05-09T19:15:44.746Z,18.50
2024-05-09T19:17:16.896Z,18.60
2024-05-09T19:18:51.692Z,18.50
2024-05-09T19:20:28.706Z,18.50
2024-05-09T19:22:06.746Z,18.50
2024-05-09T19:23:47.108Z,18.40
2024-05-09T19:25:23.813Z,18.40
2024-05-09T19:26:58.387Z,18.40
2024-05-09T19:28:32.908Z,18.40
2024-05-09T19:30:13.885Z,18.30
2024-05-09T19:31:52.295Z,18.30
2024-05-09T19:33:24.223Z,18.30
2024-05-09T19:34:56.127Z,18.30
2024-05-09T19:36:30.887Z,18.30
2024-05-09T19:38:02.997Z,18.20
2024-05-09T19:39:34.986Z,18.20
2024-05-09T19:41:09.488Z,18.20
2024-05-09T19:42:41.607Z,18.20
2024-05-09T19:44:18.862Z,18.10
2024-05-09T19:45:50.851Z,18.20
2024-05-09T19:47:25.509Z,18.10
2024-05-09T19:48:58.153Z,18.10
2024-05-09T19:50:40.708Z,18.10
2024-05-09T19:52:15.872Z,18.00
2024-05-09T19:53:50.581Z,18.00
2024-05-09T19:55:22.564Z,18.00
2024-05-09T19:56:55.914Z,18.00
2024-05-09T19:58:30.529Z,18.00
2024-05-09T20:00:06.106Z,17.90
2024-05-09T20:01:40.799Z,17.90
2024-05-09T20:03:14.930Z,17.90
2024-05-09T20:04:48.941Z,17.90
2024-05-09T20:06:25.104Z,17.90
2024-05-09T20:07:57.100Z,17.90
2024-05-09T20:09:28.979Z,17.80
2024-05-09T20:11:03.448Z,17.80
2024-05-09T20:12:35.345Z,17.80
2024-05-09T20:14:09.810Z,17.70
2024-05-09T20:15:44.482Z,17.70
2024-05-09T20:17:19.000Z,17.70
2024-05-09T20:18:51.009Z,17.70
2024-05-09T20:20:32.915Z,17.70
2024-05-09T20:22:12.743Z,17.70